Airfield :
LOGIN :

Register | Disclaimer

   EN    FR    IT 

 










Legend :    VFR   Marginal VFR   IFR   Intensive IFR   Very Intensive IFR
Visi :
Ceiling :
>= 8 km
>= 3000ft
5 to 8 km
1000 to 3000 ft
1500m to 5 km
500 to 1000 ft
800 to 1500m
200 to 500 ft
< 800m
< 200 ft
Symbols :   Thunderstorms  Fog  Heavy snow  Heavy precipitations  Wind > 20 kt
SIGMETs :     Misc.  Thunderstorms  Icing  Turbulence  Mountain Waves  Volcanic Ashes






- Airport Elevation : 121 ft
- IATA code : HUY


EGNJ - Humberside

CURRENT METAR :
  • 190550Z AUTO 19008KT 9999 NCD 18/15 Q1018

EXPIRED METARs :
  • 190520Z 20008KT CAVOK 18/15 Q1017
  • 190450Z AUTO 19009KT 9999 NCD 17/15 Q1017
  • 190420Z AUTO 20007KT 9999 NCD 17/14 Q1017
  • 190350Z AUTO 20008KT 9999 NCD 16/14 Q1017
  • 190320Z AUTO 19008KT 9999 NCD 17/15 Q1017
  • 190250Z AUTO 19010KT 9999 NCD 18/15 Q1017
  • 190220Z AUTO 19009KT 9999 NCD 17/15 Q1018
  • 190150Z AUTO 20008KT 9999 NCD 17/15 Q1018
  • 190120Z AUTO 20008KT 9999 NCD 18/15 Q1018

TAF TAF EGNJ
Valid from the 19 at 06:00 until the 19 at 15:00 UTC


190458Z 1906/1915 20009KT 9999 FEW040
PROB30 1906/1908 8000
ATIS : +44 1652 682 020



MET'MAP, your aeronautical weather chart ! - Copyright ORBIFLY December 2007 - Disclaimer

ORBIFLY MET'MAP TEAM :

Programming & Development : Alexandra Zaïnal
Original concept : Baudouin d'Aumeries
Technical & hardware support : Manuel Goepfert
Assistance : Marc-Olivier Méhu




SOURCES & CREDITS :

   NOAA